• Join FlightAware (Why Join?)
  • Login
  • US Flag GB Flag 
15:31 EDT


 

Airport Tracker/Info


-or-


 

Live Flight TrackerFlight Track Log ✈ N58BT ✈ 03-Jul-2013 ✈ KTLH - KAPF

Flight Track Log - Related Links

Times and Time Zones

All times are in EDT time to prevent confusion due to time zone crossing. See the N58BT flight status page for this flight to view local times or setup timezone preferences in your user account.

Time Position Orientation Groundspeed Altitude Reporting Facility
EDT Latitude Longitude Course Direction KTS MPH feet Rate Location/Type
16:21 30.2069 -84.2603 151° Southeast 131 151 9,200  Level Jacksonville Center
16:22 30.1758 -84.2406 151° Southeast 137 158 10,500 1,200 Climbing Jacksonville Center
16:23 30.1386 -84.2183 153° Southeast 137 158 11,700 1,260 Climbing Jacksonville Center
16:24 30.1011 -84.1964 153° Southeast 142 163 13,100 1,260 Climbing Jacksonville Center
16:25 30.0658 -84.1742 151° Southeast 147 169 14,300 1,200 Climbing Jacksonville Center
16:26 30.0264 -84.1544 157° South 153 176 15,500 1,080 Climbing Jacksonville Center
16:27 29.9869 -84.1322 154° Southeast 158 182 16,500 900 Climbing Jacksonville Center
16:28 29.9414 -84.1078 155° Southeast 164 189 17,300 480 Climbing Jacksonville Center
16:29 29.8956 -84.0858 157° South 174 200 17,500 60 Climbing Jacksonville Center
16:30 29.8500 -84.0589 153° Southeast 180 207 17,500  Level Jacksonville Center
16:31 29.8022 -84.0272 150° Southeast 185 213 17,500  Level Jacksonville Center
16:32 29.7522 -84.0050 159° South 195 224 17,500  Level Jacksonville Center
16:33 29.6961 -83.9853 163° South 195 224 17,500  Level Jacksonville Center
16:34 29.6461 -83.9681 163° South 195 224 17,500  Level Jacksonville Center
16:35 29.5942 -83.9506 164° South 195 224 17,500  Level Jacksonville Center
16:36 29.5400 -83.9308 162° South 195 224 17,500  Level Jacksonville Center
16:37 29.4878 -83.9114 162° South 200 230 17,500  Level Jacksonville Center
16:38 29.4400 -83.8869 156° South 200 230 17,500  Level Jacksonville Center
16:39 29.3881 -83.8625 158° South 200 230 17,500  Level Jacksonville Center
16:40 29.3381 -83.8358 155° Southeast 200 230 17,500  Level Jacksonville Center
16:41 29.2903 -83.8069 152° Southeast 200 230 17,500  Level Jacksonville Center
16:42 29.2383 -83.7803 156° South 200 230 17,500  Level Jacksonville Center
16:43 29.1864 -83.7511 154° Southeast 200 230 17,600  Climbing Jacksonville Center
16:44 29.1406 -83.7247 153° Southeast 200 230 17,600  Level Jacksonville Center
16:45 29.0886 -83.6981 156° South 195 224 17,600  Level Jacksonville Center
16:46 29.0386 -83.6717 155° Southeast 195 224 17,600  Level Jacksonville Center
16:47 28.9889 -83.6428 153° Southeast 195 224 17,600  Level Jacksonville Center
16:48 28.9431 -83.6114 149° Southeast 195 224 17,600  Level Jacksonville Center
16:49 28.8953 -83.5781 149° Southeast 195 224 17,600  Level Jacksonville Center
16:50 28.8494 -83.5517 153° Southeast 195 224 17,600  Level Jacksonville Center
16:51 28.8017 -83.5206 150° Southeast 200 230 17,600 -60 Level Jacksonville Center
16:52 28.7133 -83.4700 153° Southeast 198 228 17,500 -60 Descending Miami Center
16:53 28.6650 -83.4364 149° Southeast 198 228 17,500  Level Miami Center
16:54 28.6161 -83.4075 153° Southeast 198 228 17,500  Level Miami Center
16:55 28.5675 -83.3761 150° Southeast 198 228 17,500 -60 Level Miami Center
16:56 28.5167 -83.3472 153° Southeast 198 228 17,400  Descending Miami Center
16:57 28.4636 -83.3231 158° South 198 228 17,500  Climbing Miami Center
16:58 28.4086 -83.2939 155° Southeast 203 234 17,500  Level Miami Center
16:59 28.3578 -83.2697 157° South 209 241 17,500  Level Miami Center
17:00 28.3047 -83.2408 154° Southeast 209 241 17,600  Climbing Miami Center
17:01 28.2494 -83.2164 159° South 209 241 17,600 -60 Level Miami Center
17:02 28.1964 -83.1900 156° South 209 241 17,500 -60 Descending Miami Center
17:03 28.1392 -83.1656 159° South 209 241 17,500 -60 Level Miami Center
17:04 28.0836 -83.1458 163° South 209 241 17,400  Descending Miami Center
17:05 28.0281 -83.1311 167° South 204 235 17,500  Climbing Miami Center
17:06 27.9725 -83.1139 165° South 204 235 17,500  Level Miami Center
17:07 27.9169 -83.0944 163° South 204 235 17,500  Level Miami Center
17:08 27.8614 -83.0772 165° South 204 235 17,500  Level Miami Center
17:09 27.8058 -83.0603 165° South 204 235 17,500  Level Miami Center
17:10 27.7525 -83.0408 162° South 204 235 17,500  Level Miami Center
17:11 27.6969 -83.0214 163° South 204 235 17,500  Level Miami Center
17:12 27.6436 -83.0022 162° South 204 235 17,500  Level Miami Center
17:13 27.5856 -82.9897 169° South 204 235 17,500  Level Miami Center
17:14 27.5300 -82.9775 169° South 204 235 17,500  Level Miami Center
17:15 27.4739 -82.9675 171° South 204 235 17,500  Level Miami Center
17:16 27.4161 -82.9550 169° South 199 229 17,500  Level Miami Center
17:17 27.3603 -82.9428 169° South 199 229 17,500  Level Miami Center
17:18 27.3044 -82.9303 169° South 199 229 17,500  Level Miami Center
17:19 27.2486 -82.9203 171° South 199 229 17,500  Level Miami Center
17:20 27.1928 -82.9106 171° South 199 229 17,500  Level Miami Center
17:21 27.1411 -82.8961 166° South 199 229 17,500  Level Miami Center
17:22 27.1056 -82.8453 128° Southeast 193 222 17,500  Level Miami Center
17:23 27.0658 -82.8014 135° Southeast 193 222 17,600  Climbing Miami Center
17:24 27.0278 -82.7575 134° Southeast 198 228 17,600  Level Miami Center
17:25 26.9922 -82.7136 132° Southeast 193 222 17,600 -60 Level Miami Center
17:26 26.9542 -82.6700 134° Southeast 193 222 17,500 -60 Descending Miami Center
17:27 26.9142 -82.6283 137° Southeast 188 216 17,500  Level Miami Center
17:28 26.8761 -82.5847 134° Southeast 188 216 17,500  Level Miami Center
17:29 26.8386 -82.5339 130° Southeast 193 222 17,500  Level Miami Center
17:30 26.8028 -82.4856 130° Southeast 193 222 17,500  Level Miami Center
17:31 26.7692 -82.4397 129° Southeast 193 222 17,500  Level Miami Center
17:32 26.7372 -82.3989 131° Southeast 193 222 17,500 -420 Level Miami Center
17:33 26.7058 -82.3486 125° Southeast 200 230 16,700 -960 Descending Miami Center
17:34 26.6828 -82.2939 115° Southeast 200 230 15,600 -1,140 Descending Miami Center
17:35 26.6597 -82.2394 115° Southeast 200 230 14,500 -1,200 Descending Miami Center
17:36 26.6217 -82.1961 134° Southeast 194 223 13,200 -1,560 Descending Miami Center
17:37 26.5942 -82.1483 123° Southeast 187 215 11,400 -1,140 Descending Miami Center
17:38 26.5606 -82.1003 128° Southeast 182 209 11,000 -540 Descending Miami Center
17:39 26.5286 -82.0572 130° Southeast 182 209 10,400 -900 Descending Miami Center
17:40 26.4969 -82.0139 129° Southeast 188 216 9,300 -1,140 Descending Miami Center
17:42 26.4526 -81.9831 136° Southeast  Level Estimated
17:49 26.1814 -81.7890 147° Southeast  Level FlightAware Approximate
17:50 26.1500 -81.7667 136° Southeast  Level FlightAware Approximate
17:51 26.1524 -81.7756 136° Southeast  Level Estimated
17:52 26.1524 -81.7756 136° Southeast  Level Estimated
17:53 26.1524 -81.7756 136° Southeast  Level Estimated
17:54 26.1524 -81.7756 136° Southeast  Level Estimated
17:55 26.1524 -81.7756 136° Southeast  Level Estimated
17:56 26.1524 -81.7756 136° Southeast  Level Estimated
17:57 26.1524 -81.7756 136° Southeast  Level Estimated
17:58 26.1524 -81.7756 136° Southeast  Level Estimated
17:59 26.1524 -81.7756 136° Southeast  Level Estimated
18:00 26.1524 -81.7756 136° Southeast  Level Estimated
18:01 26.1524 -81.7756 136° Southeast  Level Estimated